sensor_id;sensor_type;location;lat;lon;timestamp;P1;durP1;ratioP1;P2;durP2;ratioP2
37199;SDS011;23096;50.892;16.746;2023-12-20T00:00:04;5.50;;;3.70;;
37199;SDS011;23096;50.892;16.746;2023-12-20T00:02:32;4.30;;;3.20;;
37199;SDS011;23096;50.892;16.746;2023-12-20T00:04:57;5.10;;;3.60;;
37199;SDS011;23096;50.892;16.746;2023-12-20T00:07:23;5.10;;;3.90;;
37199;SDS011;23096;50.892;16.746;2023-12-20T00:09:48;5.20;;;4.10;;
37199;SDS011;23096;50.892;16.746;2023-12-20T00:12:14;5.60;;;3.30;;
37199;SDS011;23096;50.892;16.746;2023-12-20T00:14:39;5.50;;;3.50;;
37199;SDS011;23096;50.892;16.746;2023-12-20T00:17:05;4.90;;;3.60;;
37199;SDS011;23096;50.892;16.746;2023-12-20T00:19:30;6.60;;;3.40;;
37199;SDS011;23096;50.892;16.746;2023-12-20T00:21:56;4.40;;;4.00;;
37199;SDS011;23096;50.892;16.746;2023-12-20T00:24:21;6.00;;;4.60;;
37199;SDS011;23096;50.892;16.746;2023-12-20T00:26:47;5.30;;;3.30;;
37199;SDS011;23096;50.892;16.746;2023-12-20T00:29:12;4.70;;;3.70;;
37199;SDS011;23096;50.892;16.746;2023-12-20T00:31:38;6.40;;;4.00;;
37199;SDS011;23096;50.892;16.746;2023-12-20T00:34:03;5.50;;;3.70;;
37199;SDS011;23096;50.892;16.746;2023-12-20T00:36:28;5.30;;;3.90;;
37199;SDS011;23096;50.892;16.746;2023-12-20T00:38:54;5.40;;;3.90;;
37199;SDS011;23096;50.892;16.746;2023-12-20T00:41:19;5.70;;;4.00;;
37199;SDS011;23096;50.892;16.746;2023-12-20T00:43:45;6.50;;;3.50;;
37199;SDS011;23096;50.892;16.746;2023-12-20T00:46:11;6.50;;;4.40;;
37199;SDS011;23096;50.892;16.746;2023-12-20T00:48:37;4.20;;;3.70;;
37199;SDS011;23096;50.892;16.746;2023-12-20T00:51:03;4.40;;;3.60;;
37199;SDS011;23096;50.892;16.746;2023-12-20T00:53:28;7.30;;;3.40;;
37199;SDS011;23096;50.892;16.746;2023-12-20T00:55:54;4.60;;;3.70;;
37199;SDS011;23096;50.892;16.746;2023-12-20T00:58:20;5.10;;;3.80;;
37199;SDS011;23096;50.892;16.746;2023-12-20T01:00:45;5.50;;;4.30;;
37199;SDS011;23096;50.892;16.746;2023-12-20T01:03:11;5.30;;;4.10;;
37199;SDS011;23096;50.892;16.746;2023-12-20T01:05:37;7.30;;;4.30;;
37199;SDS011;23096;50.892;16.746;2023-12-20T01:08:03;5.00;;;3.90;;
37199;SDS011;23096;50.892;16.746;2023-12-20T01:10:28;6.10;;;3.40;;
37199;SDS011;23096;50.892;16.746;2023-12-20T01:12:54;5.60;;;4.60;;
37199;SDS011;23096;50.892;16.746;2023-12-20T01:15:20;4.20;;;3.60;;
37199;SDS011;23096;50.892;16.746;2023-12-20T01:17:45;6.90;;;3.80;;
37199;SDS011;23096;50.892;16.746;2023-12-20T01:20:11;7.30;;;3.90;;
37199;SDS011;23096;50.892;16.746;2023-12-20T01:22:36;4.80;;;4.20;;
37199;SDS011;23096;50.892;16.746;2023-12-20T01:25:02;5.60;;;4.50;;
37199;SDS011;23096;50.892;16.746;2023-12-20T01:27:28;4.90;;;3.30;;
37199;SDS011;23096;50.892;16.746;2023-12-20T01:29:54;5.40;;;3.80;;
37199;SDS011;23096;50.892;16.746;2023-12-20T01:32:20;4.20;;;3.70;;
37199;SDS011;23096;50.892;16.746;2023-12-20T01:34:45;7.00;;;4.20;;
37199;SDS011;23096;50.892;16.746;2023-12-20T01:37:11;5.70;;;4.70;;
37199;SDS011;23096;50.892;16.746;2023-12-20T01:39:36;6.50;;;3.80;;
37199;SDS011;23096;50.892;16.746;2023-12-20T01:42:02;6.10;;;4.50;;
37199;SDS011;23096;50.892;16.746;2023-12-20T01:44:27;6.70;;;4.30;;
37199;SDS011;23096;50.892;16.746;2023-12-20T01:46:53;6.20;;;4.20;;
37199;SDS011;23096;50.892;16.746;2023-12-20T01:49:19;5.50;;;3.50;;
37199;SDS011;23096;50.892;16.746;2023-12-20T01:51:45;5.10;;;4.20;;
37199;SDS011;23096;50.892;16.746;2023-12-20T01:54:11;4.90;;;3.60;;
37199;SDS011;23096;50.892;16.746;2023-12-20T01:56:37;5.40;;;3.60;;
37199;SDS011;23096;50.892;16.746;2023-12-20T01:59:04;4.00;;;3.60;;
37199;SDS011;23096;50.892;16.746;2023-12-20T02:01:29;5.20;;;3.90;;
37199;SDS011;23096;50.892;16.746;2023-12-20T02:03:55;5.80;;;4.00;;
37199;SDS011;23096;50.892;16.746;2023-12-20T02:06:22;4.50;;;3.50;;
37199;SDS011;23096;50.892;16.746;2023-12-20T02:08:49;5.40;;;4.00;;
37199;SDS011;23096;50.892;16.746;2023-12-20T02:11:15;4.80;;;3.50;;
37199;SDS011;23096;50.892;16.746;2023-12-20T02:13:41;5.30;;;3.60;;
37199;SDS011;23096;50.892;16.746;2023-12-20T02:16:07;5.20;;;3.50;;
37199;SDS011;23096;50.892;16.746;2023-12-20T02:18:32;4.60;;;3.20;;
37199;SDS011;23096;50.892;16.746;2023-12-20T02:20:58;4.40;;;3.60;;
37199;SDS011;23096;50.892;16.746;2023-12-20T02:23:24;5.00;;;3.50;;
37199;SDS011;23096;50.892;16.746;2023-12-20T02:25:50;6.20;;;3.20;;
37199;SDS011;23096;50.892;16.746;2023-12-20T02:28:17;4.70;;;3.40;;
37199;SDS011;23096;50.892;16.746;2023-12-20T02:33:15;5.20;;;3.20;;
37199;SDS011;23096;50.892;16.746;2023-12-20T02:35:41;4.60;;;3.10;;
37199;SDS011;23096;50.892;16.746;2023-12-20T02:38:06;3.80;;;3.20;;
37199;SDS011;23096;50.892;16.746;2023-12-20T02:40:32;4.70;;;3.10;;
37199;SDS011;23096;50.892;16.746;2023-12-20T02:42:57;3.50;;;3.20;;
37199;SDS011;23096;50.892;16.746;2023-12-20T02:45:23;3.80;;;2.40;;
37199;SDS011;23096;50.892;16.746;2023-12-20T02:47:48;4.00;;;3.40;;
37199;SDS011;23096;50.892;16.746;2023-12-20T02:50:14;3.90;;;3.30;;
37199;SDS011;23096;50.892;16.746;2023-12-20T02:52:40;4.20;;;3.30;;
37199;SDS011;23096;50.892;16.746;2023-12-20T02:55:05;4.70;;;2.90;;
37199;SDS011;23096;50.892;16.746;2023-12-20T02:57:31;4.80;;;3.30;;
37199;SDS011;23096;50.892;16.746;2023-12-20T02:59:58;4.80;;;2.90;;
37199;SDS011;23096;50.892;16.746;2023-12-20T03:02:24;5.00;;;3.50;;
37199;SDS011;23096;50.892;16.746;2023-12-20T03:04:49;5.20;;;3.50;;
37199;SDS011;23096;50.892;16.746;2023-12-20T03:07:15;4.20;;;3.20;;
37199;SDS011;23096;50.892;16.746;2023-12-20T03:09:40;5.30;;;3.40;;
37199;SDS011;23096;50.892;16.746;2023-12-20T03:12:06;4.50;;;3.10;;
37199;SDS011;23096;50.892;16.746;2023-12-20T03:14:31;6.60;;;3.90;;
37199;SDS011;23096;50.892;16.746;2023-12-20T03:16:57;6.20;;;4.00;;
37199;SDS011;23096;50.892;16.746;2023-12-20T03:19:22;6.20;;;3.70;;
37199;SDS011;23096;50.892;16.746;2023-12-20T03:21:48;5.90;;;3.60;;
37199;SDS011;23096;50.892;16.746;2023-12-20T03:24:15;5.10;;;3.80;;
37199;SDS011;23096;50.892;16.746;2023-12-20T03:26:41;6.70;;;4.10;;
37199;SDS011;23096;50.892;16.746;2023-12-20T03:29:06;6.00;;;4.00;;
37199;SDS011;23096;50.892;16.746;2023-12-20T03:31:32;6.40;;;4.50;;
37199;SDS011;23096;50.892;16.746;2023-12-20T03:33:57;6.50;;;4.50;;
37199;SDS011;23096;50.892;16.746;2023-12-20T03:36:23;5.40;;;4.10;;
37199;SDS011;23096;50.892;16.746;2023-12-20T03:38:48;5.90;;;4.40;;
37199;SDS011;23096;50.892;16.746;2023-12-20T03:41:14;6.10;;;3.80;;
37199;SDS011;23096;50.892;16.746;2023-12-20T03:43:39;5.60;;;4.30;;
37199;SDS011;23096;50.892;16.746;2023-12-20T03:46:08;6.00;;;5.00;;
37199;SDS011;23096;50.892;16.746;2023-12-20T03:48:34;5.70;;;3.80;;
37199;SDS011;23096;50.892;16.746;2023-12-20T03:51:00;5.00;;;4.10;;
37199;SDS011;23096;50.892;16.746;2023-12-20T03:53:25;6.90;;;5.20;;
37199;SDS011;23096;50.892;16.746;2023-12-20T03:55:51;6.50;;;4.40;;
37199;SDS011;23096;50.892;16.746;2023-12-20T03:58:16;7.00;;;4.90;;
37199;SDS011;23096;50.892;16.746;2023-12-20T04:00:42;5.90;;;4.30;;
37199;SDS011;23096;50.892;16.746;2023-12-20T04:03:07;4.60;;;3.90;;
37199;SDS011;23096;50.892;16.746;2023-12-20T04:05:33;4.50;;;3.70;;
37199;SDS011;23096;50.892;16.746;2023-12-20T04:07:59;5.00;;;4.30;;
37199;SDS011;23096;50.892;16.746;2023-12-20T04:10:26;7.10;;;4.10;;
37199;SDS011;23096;50.892;16.746;2023-12-20T04:12:51;5.00;;;4.10;;
37199;SDS011;23096;50.892;16.746;2023-12-20T04:15:17;6.40;;;5.00;;
37199;SDS011;23096;50.892;16.746;2023-12-20T04:17:43;7.70;;;4.50;;
37199;SDS011;23096;50.892;16.746;2023-12-20T04:20:08;7.00;;;4.30;;
37199;SDS011;23096;50.892;16.746;2023-12-20T04:22:34;5.80;;;4.30;;
37199;SDS011;23096;50.892;16.746;2023-12-20T04:25:00;7.90;;;4.10;;
37199;SDS011;23096;50.892;16.746;2023-12-20T04:27:25;4.70;;;3.70;;
37199;SDS011;23096;50.892;16.746;2023-12-20T04:29:51;6.60;;;3.70;;
37199;SDS011;23096;50.892;16.746;2023-12-20T04:32:17;6.30;;;4.20;;
37199;SDS011;23096;50.892;16.746;2023-12-20T04:34:42;5.60;;;3.80;;
37199;SDS011;23096;50.892;16.746;2023-12-20T04:37:08;5.20;;;3.90;;
37199;SDS011;23096;50.892;16.746;2023-12-20T04:39:34;5.50;;;3.70;;
37199;SDS011;23096;50.892;16.746;2023-12-20T04:41:59;6.20;;;4.20;;
37199;SDS011;23096;50.892;16.746;2023-12-20T04:44:25;4.80;;;4.20;;
37199;SDS011;23096;50.892;16.746;2023-12-20T04:46:51;7.50;;;4.60;;
37199;SDS011;23096;50.892;16.746;2023-12-20T04:49:17;8.00;;;4.50;;
37199;SDS011;23096;50.892;16.746;2023-12-20T04:51:42;8.20;;;5.90;;
37199;SDS011;23096;50.892;16.746;2023-12-20T04:54:08;5.60;;;4.50;;
37199;SDS011;23096;50.892;16.746;2023-12-20T04:56:35;5.20;;;4.10;;
37199;SDS011;23096;50.892;16.746;2023-12-20T04:59:01;4.50;;;3.80;;
37199;SDS011;23096;50.892;16.746;2023-12-20T05:01:26;7.90;;;4.10;;
37199;SDS011;23096;50.892;16.746;2023-12-20T05:03:52;5.70;;;4.60;;
37199;SDS011;23096;50.892;16.746;2023-12-20T05:06:18;5.30;;;3.80;;
37199;SDS011;23096;50.892;16.746;2023-12-20T05:08:43;4.60;;;3.70;;
37199;SDS011;23096;50.892;16.746;2023-12-20T05:11:09;5.60;;;3.70;;
37199;SDS011;23096;50.892;16.746;2023-12-20T05:13:34;6.90;;;4.00;;
37199;SDS011;23096;50.892;16.746;2023-12-20T05:16:00;7.00;;;4.60;;
37199;SDS011;23096;50.892;16.746;2023-12-20T05:18:26;6.10;;;5.00;;
37199;SDS011;23096;50.892;16.746;2023-12-20T05:20:51;7.80;;;5.40;;
37199;SDS011;23096;50.892;16.746;2023-12-20T05:23:17;8.50;;;6.50;;
37199;SDS011;23096;50.892;16.746;2023-12-20T05:25:43;9.50;;;6.70;;
37199;SDS011;23096;50.892;16.746;2023-12-20T05:28:08;9.40;;;6.80;;
37199;SDS011;23096;50.892;16.746;2023-12-20T05:30:34;7.50;;;6.70;;
37199;SDS011;23096;50.892;16.746;2023-12-20T05:33:00;9.30;;;5.50;;
37199;SDS011;23096;50.892;16.746;2023-12-20T05:35:26;8.80;;;6.60;;
37199;SDS011;23096;50.892;16.746;2023-12-20T05:37:51;8.00;;;6.70;;
37199;SDS011;23096;50.892;16.746;2023-12-20T05:40:17;6.70;;;5.40;;
37199;SDS011;23096;50.892;16.746;2023-12-20T05:42:42;7.40;;;5.80;;
37199;SDS011;23096;50.892;16.746;2023-12-20T05:45:08;7.20;;;6.10;;
37199;SDS011;23096;50.892;16.746;2023-12-20T05:47:34;6.40;;;5.60;;
37199;SDS011;23096;50.892;16.746;2023-12-20T05:50:00;7.50;;;5.80;;
37199;SDS011;23096;50.892;16.746;2023-12-20T05:52:25;7.00;;;5.50;;
37199;SDS011;23096;50.892;16.746;2023-12-20T05:54:51;7.80;;;4.80;;
37199;SDS011;23096;50.892;16.746;2023-12-20T05:57:17;4.80;;;4.30;;
37199;SDS011;23096;50.892;16.746;2023-12-20T05:59:42;4.20;;;3.70;;
37199;SDS011;23096;50.892;16.746;2023-12-20T06:02:09;4.90;;;3.90;;
37199;SDS011;23096;50.892;16.746;2023-12-20T06:04:34;5.00;;;3.70;;
37199;SDS011;23096;50.892;16.746;2023-12-20T06:07:00;5.50;;;3.70;;
37199;SDS011;23096;50.892;16.746;2023-12-20T06:09:28;6.50;;;4.60;;
37199;SDS011;23096;50.892;16.746;2023-12-20T06:11:54;5.10;;;4.00;;
37199;SDS011;23096;50.892;16.746;2023-12-20T06:14:19;5.30;;;3.60;;
37199;SDS011;23096;50.892;16.746;2023-12-20T06:16:45;3.90;;;3.30;;
37199;SDS011;23096;50.892;16.746;2023-12-20T06:19:11;5.80;;;3.10;;
37199;SDS011;23096;50.892;16.746;2023-12-20T06:21:36;4.40;;;2.80;;
37199;SDS011;23096;50.892;16.746;2023-12-20T06:24:02;4.10;;;3.10;;
37199;SDS011;23096;50.892;16.746;2023-12-20T06:26:27;2.80;;;2.40;;
37199;SDS011;23096;50.892;16.746;2023-12-20T06:28:53;4.10;;;2.80;;
37199;SDS011;23096;50.892;16.746;2023-12-20T06:31:18;3.90;;;2.80;;
37199;SDS011;23096;50.892;16.746;2023-12-20T06:33:44;3.60;;;3.00;;
37199;SDS011;23096;50.892;16.746;2023-12-20T06:36:13;2.60;;;2.00;;
37199;SDS011;23096;50.892;16.746;2023-12-20T06:38:39;3.00;;;2.30;;
37199;SDS011;23096;50.892;16.746;2023-12-20T06:41:05;2.80;;;2.20;;
37199;SDS011;23096;50.892;16.746;2023-12-20T06:43:31;3.80;;;2.70;;
37199;SDS011;23096;50.892;16.746;2023-12-20T06:45:57;5.10;;;3.00;;
37199;SDS011;23096;50.892;16.746;2023-12-20T06:48:23;2.80;;;2.50;;
37199;SDS011;23096;50.892;16.746;2023-12-20T06:50:49;3.90;;;2.60;;
37199;SDS011;23096;50.892;16.746;2023-12-20T06:53:15;4.40;;;2.80;;
37199;SDS011;23096;50.892;16.746;2023-12-20T06:55:41;3.40;;;2.60;;
37199;SDS011;23096;50.892;16.746;2023-12-20T06:58:07;4.20;;;2.80;;
37199;SDS011;23096;50.892;16.746;2023-12-20T07:00:34;3.90;;;2.90;;
37199;SDS011;23096;50.892;16.746;2023-12-20T07:02:59;3.90;;;2.70;;
37199;SDS011;23096;50.892;16.746;2023-12-20T07:05:25;4.80;;;3.30;;
37199;SDS011;23096;50.892;16.746;2023-12-20T07:07:50;4.50;;;3.40;;
37199;SDS011;23096;50.892;16.746;2023-12-20T07:10:16;3.70;;;2.90;;
37199;SDS011;23096;50.892;16.746;2023-12-20T07:12:42;3.70;;;2.40;;
37199;SDS011;23096;50.892;16.746;2023-12-20T07:15:07;5.30;;;2.90;;
37199;SDS011;23096;50.892;16.746;2023-12-20T07:17:34;5.60;;;3.00;;
37199;SDS011;23096;50.892;16.746;2023-12-20T07:19:59;5.10;;;3.20;;
37199;SDS011;23096;50.892;16.746;2023-12-20T07:22:33;3.70;;;3.10;;
37199;SDS011;23096;50.892;16.746;2023-12-20T07:24:59;5.70;;;3.50;;
37199;SDS011;23096;50.892;16.746;2023-12-20T07:27:24;7.70;;;4.30;;
37199;SDS011;23096;50.892;16.746;2023-12-20T07:29:50;6.00;;;3.90;;
37199;SDS011;23096;50.892;16.746;2023-12-20T07:32:16;4.70;;;3.20;;
37199;SDS011;23096;50.892;16.746;2023-12-20T07:34:41;5.90;;;3.70;;
37199;SDS011;23096;50.892;16.746;2023-12-20T07:37:07;5.40;;;4.00;;
37199;SDS011;23096;50.892;16.746;2023-12-20T07:39:35;6.30;;;3.90;;
37199;SDS011;23096;50.892;16.746;2023-12-20T07:42:01;6.00;;;3.90;;
37199;SDS011;23096;50.892;16.746;2023-12-20T07:44:26;6.00;;;4.50;;
37199;SDS011;23096;50.892;16.746;2023-12-20T07:46:52;5.90;;;4.00;;
37199;SDS011;23096;50.892;16.746;2023-12-20T07:49:18;5.20;;;4.20;;
37199;SDS011;23096;50.892;16.746;2023-12-20T07:51:44;8.70;;;5.20;;
37199;SDS011;23096;50.892;16.746;2023-12-20T07:54:10;8.40;;;4.00;;
37199;SDS011;23096;50.892;16.746;2023-12-20T07:56:35;7.60;;;4.70;;
37199;SDS011;23096;50.892;16.746;2023-12-20T07:59:01;4.60;;;3.30;;
37199;SDS011;23096;50.892;16.746;2023-12-20T08:01:27;5.10;;;3.60;;
37199;SDS011;23096;50.892;16.746;2023-12-20T08:03:52;5.10;;;3.20;;
37199;SDS011;23096;50.892;16.746;2023-12-20T08:06:18;7.10;;;3.70;;
37199;SDS011;23096;50.892;16.746;2023-12-20T08:08:45;5.80;;;3.70;;
37199;SDS011;23096;50.892;16.746;2023-12-20T08:11:33;4.90;;;3.50;;
37199;SDS011;23096;50.892;16.746;2023-12-20T08:13:59;6.10;;;3.60;;
37199;SDS011;23096;50.892;16.746;2023-12-20T08:16:25;5.30;;;3.50;;
37199;SDS011;23096;50.892;16.746;2023-12-20T08:18:50;5.50;;;3.70;;
37199;SDS011;23096;50.892;16.746;2023-12-20T08:21:16;5.30;;;3.30;;
37199;SDS011;23096;50.892;16.746;2023-12-20T08:23:44;3.80;;;2.50;;
37199;SDS011;23096;50.892;16.746;2023-12-20T08:26:10;6.30;;;3.80;;
37199;SDS011;23096;50.892;16.746;2023-12-20T08:28:36;6.70;;;2.90;;
37199;SDS011;23096;50.892;16.746;2023-12-20T08:31:06;4.10;;;2.90;;
37199;SDS011;23096;50.892;16.746;2023-12-20T08:33:31;4.50;;;2.70;;
37199;SDS011;23096;50.892;16.746;2023-12-20T08:35:57;5.90;;;2.80;;
37199;SDS011;23096;50.892;16.746;2023-12-20T08:38:23;4.30;;;2.90;;
37199;SDS011;23096;50.892;16.746;2023-12-20T08:54:41;4.40;;;2.80;;
37199;SDS011;23096;50.892;16.746;2023-12-20T08:57:07;7.60;;;2.90;;
37199;SDS011;23096;50.892;16.746;2023-12-20T08:59:32;4.50;;;3.10;;
37199;SDS011;23096;50.892;16.746;2023-12-20T09:01:58;6.10;;;3.10;;
37199;SDS011;23096;50.892;16.746;2023-12-20T09:04:24;3.90;;;2.50;;
37199;SDS011;23096;50.892;16.746;2023-12-20T09:06:50;9.40;;;5.90;;
37199;SDS011;23096;50.892;16.746;2023-12-20T09:09:15;9.20;;;5.90;;
37199;SDS011;23096;50.892;16.746;2023-12-20T09:11:41;4.80;;;3.10;;
37199;SDS011;23096;50.892;16.746;2023-12-20T09:14:07;11.40;;;7.80;;
37199;SDS011;23096;50.892;16.746;2023-12-20T09:16:33;4.40;;;2.30;;
37199;SDS011;23096;50.892;16.746;2023-12-20T09:18:59;8.70;;;7.80;;
37199;SDS011;23096;50.892;16.746;2023-12-20T09:21:24;15.60;;;12.50;;
37199;SDS011;23096;50.892;16.746;2023-12-20T09:23:51;4.00;;;3.10;;
37199;SDS011;23096;50.892;16.746;2023-12-20T09:26:16;5.80;;;4.00;;
37199;SDS011;23096;50.892;16.746;2023-12-20T09:28:42;4.80;;;3.60;;
37199;SDS011;23096;50.892;16.746;2023-12-20T09:31:07;5.00;;;3.20;;
37199;SDS011;23096;50.892;16.746;2023-12-20T09:33:33;5.30;;;3.20;;
37199;SDS011;23096;50.892;16.746;2023-12-20T09:35:59;2.40;;;1.60;;
37199;SDS011;23096;50.892;16.746;2023-12-20T09:38:25;3.90;;;1.90;;
37199;SDS011;23096;50.892;16.746;2023-12-20T09:40:50;1.50;;;1.20;;
37199;SDS011;23096;50.892;16.746;2023-12-20T09:43:18;1.80;;;1.00;;
37199;SDS011;23096;50.892;16.746;2023-12-20T09:45:46;1.70;;;1.20;;
37199;SDS011;23096;50.892;16.746;2023-12-20T09:48:13;1.00;;;0.60;;
37199;SDS011;23096;50.892;16.746;2023-12-20T09:50:43;1.40;;;0.90;;
37199;SDS011;23096;50.892;16.746;2023-12-20T09:53:09;2.40;;;0.80;;
37199;SDS011;23096;50.892;16.746;2023-12-20T09:55:40;1.10;;;0.70;;
37199;SDS011;23096;50.892;16.746;2023-12-20T09:58:06;3.20;;;1.00;;
37199;SDS011;23096;50.892;16.746;2023-12-20T10:00:34;0.80;;;0.70;;
37199;SDS011;23096;50.892;16.746;2023-12-20T10:03:00;1.40;;;0.90;;
37199;SDS011;23096;50.892;16.746;2023-12-20T10:05:35;1.50;;;0.80;;
37199;SDS011;23096;50.892;16.746;2023-12-20T10:08:01;2.30;;;1.00;;
37199;SDS011;23096;50.892;16.746;2023-12-20T10:10:28;2.00;;;0.90;;
37199;SDS011;23096;50.892;16.746;2023-12-20T10:15:29;8.90;;;2.00;;
37199;SDS011;23096;50.892;16.746;2023-12-20T10:17:54;3.20;;;1.00;;
37199;SDS011;23096;50.892;16.746;2023-12-20T10:20:20;3.10;;;1.90;;
37199;SDS011;23096;50.892;16.746;2023-12-20T10:22:46;4.30;;;1.60;;
37199;SDS011;23096;50.892;16.746;2023-12-20T10:25:12;3.70;;;1.10;;
37199;SDS011;23096;50.892;16.746;2023-12-20T10:27:38;3.00;;;1.40;;
37199;SDS011;23096;50.892;16.746;2023-12-20T10:30:04;2.50;;;1.40;;
37199;SDS011;23096;50.892;16.746;2023-12-20T10:32:29;3.40;;;1.50;;
37199;SDS011;23096;50.892;16.746;2023-12-20T10:34:56;3.60;;;1.30;;
37199;SDS011;23096;50.892;16.746;2023-12-20T10:37:24;2.30;;;1.70;;
37199;SDS011;23096;50.892;16.746;2023-12-20T10:39:51;4.10;;;1.40;;
37199;SDS011;23096;50.892;16.746;2023-12-20T10:42:21;3.70;;;1.50;;
37199;SDS011;23096;50.892;16.746;2023-12-20T10:44:48;10.50;;;4.50;;
37199;SDS011;23096;50.892;16.746;2023-12-20T10:47:15;9.30;;;2.70;;
37199;SDS011;23096;50.892;16.746;2023-12-20T10:49:40;12.40;;;5.20;;
37199;SDS011;23096;50.892;16.746;2023-12-20T10:52:07;9.00;;;3.70;;
37199;SDS011;23096;50.892;16.746;2023-12-20T10:54:34;18.70;;;5.50;;
37199;SDS011;23096;50.892;16.746;2023-12-20T10:57:00;7.60;;;3.10;;
37199;SDS011;23096;50.892;16.746;2023-12-20T10:59:31;6.90;;;2.60;;
37199;SDS011;23096;50.892;16.746;2023-12-20T11:01:59;4.00;;;1.90;;
37199;SDS011;23096;50.892;16.746;2023-12-20T11:04:36;3.50;;;2.10;;
37199;SDS011;23096;50.892;16.746;2023-12-20T11:07:32;6.10;;;1.80;;
37199;SDS011;23096;50.892;16.746;2023-12-20T11:10:00;8.30;;;2.30;;
37199;SDS011;23096;50.892;16.746;2023-12-20T11:12:47;4.10;;;2.40;;
37199;SDS011;23096;50.892;16.746;2023-12-20T11:15:17;4.80;;;1.90;;
37199;SDS011;23096;50.892;16.746;2023-12-20T11:17:53;3.60;;;1.90;;
37199;SDS011;23096;50.892;16.746;2023-12-20T11:20:21;4.30;;;2.00;;
37199;SDS011;23096;50.892;16.746;2023-12-20T11:23:00;9.70;;;2.10;;
37199;SDS011;23096;50.892;16.746;2023-12-20T11:25:25;4.00;;;1.20;;
37199;SDS011;23096;50.892;16.746;2023-12-20T11:30:51;3.30;;;1.40;;
37199;SDS011;23096;50.892;16.746;2023-12-20T11:33:24;2.40;;;1.20;;
37199;SDS011;23096;50.892;16.746;2023-12-20T11:35:51;5.50;;;2.20;;
37199;SDS011;23096;50.892;16.746;2023-12-20T11:38:19;4.00;;;2.50;;
37199;SDS011;23096;50.892;16.746;2023-12-20T11:40:45;4.20;;;2.10;;
37199;SDS011;23096;50.892;16.746;2023-12-20T11:43:32;2.80;;;1.50;;
37199;SDS011;23096;50.892;16.746;2023-12-20T11:46:04;2.60;;;1.50;;
37199;SDS011;23096;50.892;16.746;2023-12-20T11:48:31;2.10;;;1.30;;
37199;SDS011;23096;50.892;16.746;2023-12-20T11:50:57;3.40;;;1.40;;
37199;SDS011;23096;50.892;16.746;2023-12-20T11:53:23;1.50;;;1.10;;
37199;SDS011;23096;50.892;16.746;2023-12-20T11:55:49;2.40;;;1.00;;
37199;SDS011;23096;50.892;16.746;2023-12-20T11:58:15;3.30;;;1.20;;
37199;SDS011;23096;50.892;16.746;2023-12-20T12:00:42;2.80;;;1.30;;
37199;SDS011;23096;50.892;16.746;2023-12-20T12:03:08;3.10;;;1.10;;
37199;SDS011;23096;50.892;16.746;2023-12-20T12:05:35;3.10;;;2.10;;
37199;SDS011;23096;50.892;16.746;2023-12-20T12:08:01;2.80;;;1.70;;
37199;SDS011;23096;50.892;16.746;2023-12-20T12:10:28;3.40;;;1.90;;
37199;SDS011;23096;50.892;16.746;2023-12-20T12:12:54;2.90;;;2.00;;
37199;SDS011;23096;50.892;16.746;2023-12-20T12:15:20;3.10;;;2.00;;
37199;SDS011;23096;50.892;16.746;2023-12-20T12:17:56;3.50;;;1.80;;
37199;SDS011;23096;50.892;16.746;2023-12-20T12:20:23;3.60;;;2.00;;
37199;SDS011;23096;50.892;16.746;2023-12-20T12:23:01;4.60;;;1.90;;
37199;SDS011;23096;50.892;16.746;2023-12-20T12:25:29;2.80;;;1.50;;
37199;SDS011;23096;50.892;16.746;2023-12-20T12:27:56;3.20;;;1.90;;
37199;SDS011;23096;50.892;16.746;2023-12-20T12:30:23;3.30;;;1.80;;
37199;SDS011;23096;50.892;16.746;2023-12-20T12:32:50;3.10;;;1.50;;
37199;SDS011;23096;50.892;16.746;2023-12-20T12:35:17;4.10;;;1.50;;
37199;SDS011;23096;50.892;16.746;2023-12-20T12:37:42;4.30;;;1.30;;
37199;SDS011;23096;50.892;16.746;2023-12-20T12:40:12;2.70;;;1.00;;
37199;SDS011;23096;50.892;16.746;2023-12-20T12:42:39;3.30;;;1.90;;
37199;SDS011;23096;50.892;16.746;2023-12-20T12:45:06;11.70;;;3.20;;
37199;SDS011;23096;50.892;16.746;2023-12-20T12:47:31;6.80;;;2.20;;
37199;SDS011;23096;50.892;16.746;2023-12-20T12:49:58;4.30;;;2.40;;
37199;SDS011;23096;50.892;16.746;2023-12-20T12:52:23;3.70;;;1.60;;
37199;SDS011;23096;50.892;16.746;2023-12-20T12:54:50;4.10;;;2.10;;
37199;SDS011;23096;50.892;16.746;2023-12-20T12:57:15;6.30;;;1.60;;
37199;SDS011;23096;50.892;16.746;2023-12-20T12:59:42;4.30;;;1.70;;
37199;SDS011;23096;50.892;16.746;2023-12-20T13:02:08;5.10;;;1.40;;
37199;SDS011;23096;50.892;16.746;2023-12-20T13:04:33;3.90;;;1.70;;
37199;SDS011;23096;50.892;16.746;2023-12-20T13:06:59;7.70;;;1.50;;
37199;SDS011;23096;50.892;16.746;2023-12-20T13:09:25;7.60;;;1.90;;
37199;SDS011;23096;50.892;16.746;2023-12-20T13:11:50;4.50;;;1.20;;
37199;SDS011;23096;50.892;16.746;2023-12-20T13:14:16;6.50;;;2.30;;
37199;SDS011;23096;50.892;16.746;2023-12-20T13:16:42;3.10;;;1.70;;
37199;SDS011;23096;50.892;16.746;2023-12-20T13:19:08;5.50;;;1.40;;
37199;SDS011;23096;50.892;16.746;2023-12-20T13:21:34;5.60;;;2.10;;
37199;SDS011;23096;50.892;16.746;2023-12-20T13:23:59;11.60;;;4.70;;
37199;SDS011;23096;50.892;16.746;2023-12-20T13:26:25;6.80;;;2.90;;
37199;SDS011;23096;50.892;16.746;2023-12-20T13:28:50;6.10;;;3.10;;
37199;SDS011;23096;50.892;16.746;2023-12-20T13:31:16;6.80;;;2.90;;
37199;SDS011;23096;50.892;16.746;2023-12-20T13:33:41;16.20;;;5.10;;
37199;SDS011;23096;50.892;16.746;2023-12-20T13:36:07;23.20;;;6.60;;
37199;SDS011;23096;50.892;16.746;2023-12-20T13:38:34;7.80;;;2.40;;
37199;SDS011;23096;50.892;16.746;2023-12-20T13:40:59;7.70;;;2.70;;
37199;SDS011;23096;50.892;16.746;2023-12-20T13:43:25;4.50;;;1.30;;
37199;SDS011;23096;50.892;16.746;2023-12-20T13:45:50;5.10;;;1.50;;
37199;SDS011;23096;50.892;16.746;2023-12-20T13:48:16;3.90;;;1.50;;
37199;SDS011;23096;50.892;16.746;2023-12-20T13:50:42;6.80;;;1.70;;
37199;SDS011;23096;50.892;16.746;2023-12-20T13:53:07;8.00;;;2.90;;
37199;SDS011;23096;50.892;16.746;2023-12-20T13:55:34;7.10;;;2.20;;
37199;SDS011;23096;50.892;16.746;2023-12-20T13:57:59;2.80;;;1.60;;
37199;SDS011;23096;50.892;16.746;2023-12-20T14:00:25;12.90;;;4.60;;
37199;SDS011;23096;50.892;16.746;2023-12-20T14:02:50;7.20;;;3.10;;
37199;SDS011;23096;50.892;16.746;2023-12-20T14:05:16;3.30;;;1.50;;
37199;SDS011;23096;50.892;16.746;2023-12-20T14:07:43;3.30;;;0.90;;
37199;SDS011;23096;50.892;16.746;2023-12-20T14:10:12;1.60;;;1.10;;
37199;SDS011;23096;50.892;16.746;2023-12-20T14:12:41;4.30;;;1.80;;
37199;SDS011;23096;50.892;16.746;2023-12-20T14:15:07;3.60;;;1.00;;
37199;SDS011;23096;50.892;16.746;2023-12-20T14:17:38;2.90;;;1.20;;
37199;SDS011;23096;50.892;16.746;2023-12-20T14:20:05;3.40;;;1.30;;
37199;SDS011;23096;50.892;16.746;2023-12-20T14:22:32;5.10;;;1.40;;
37199;SDS011;23096;50.892;16.746;2023-12-20T14:24:57;2.90;;;1.40;;
37199;SDS011;23096;50.892;16.746;2023-12-20T14:27:23;13.10;;;2.20;;
37199;SDS011;23096;50.892;16.746;2023-12-20T14:29:55;4.30;;;1.80;;
37199;SDS011;23096;50.892;16.746;2023-12-20T14:32:21;3.40;;;1.40;;
37199;SDS011;23096;50.892;16.746;2023-12-20T14:34:46;3.80;;;1.40;;
37199;SDS011;23096;50.892;16.746;2023-12-20T14:37:12;4.50;;;1.30;;
37199;SDS011;23096;50.892;16.746;2023-12-20T14:39:38;4.60;;;1.70;;
37199;SDS011;23096;50.892;16.746;2023-12-20T14:42:07;4.30;;;2.50;;
37199;SDS011;23096;50.892;16.746;2023-12-20T14:44:37;2.70;;;1.70;;
37199;SDS011;23096;50.892;16.746;2023-12-20T14:47:03;3.50;;;1.30;;
37199;SDS011;23096;50.892;16.746;2023-12-20T14:49:29;5.50;;;1.20;;